Terminal Aerodrome Forecast
Issued by NWS Charleston, WV

Home | Current Version | Previous Version | Text Only | Print | Product List | Glossary On
Versions: 1 2 3 4 5 6 7 8 9 10 11 12 13 14 15 16 17 18 19 20 21 22 23
000
FTUS41 KRLX 050152 AAA
TAFCRW
TAF AMD
KCRW 050152Z 0502/0524 VRB03KT P6SM VCTS SCT045CB SCT100
     FM050300 00000KT 6SM BR SCT035
     FM050600 00000KT 4SM BR SCT035
     FM050900 00000KT 1SM BR SCT001 SCT045
     FM051300 15004KT 6SM BR BKN200
     FM051400 15004KT P6SM SCT030
     FM051700 14005KT P6SM BKN035=

USA.gov is the U.S. government's official web portal to all federal, state and local government web resources and services.